Time;durP1;ratioP1;P1;durP2;ratioP2;P2;SDS_P1;SDS_P2;PMS_P1;PMS_P2;Temp;Humidity;BMP_temperature;BMP_pressure;BME280_temperature;BME280_humidity;BME280_pressure;Samples;Min_cycle;Max_cycle;Signal;HPM_P1;HPM_P2
2021/01/21 00:00:40;;;;;;;14.47;2.17;;;11.10;99.90;;;;;;5072109;28;20202;-87
2021/01/21 00:03:07;;;;;;;9.80;1.80;;;11.10;99.90;;;;;;5090902;28;20727;-87
2021/01/21 00:05:47;;;;;;;9.37;1.67;;;11.10;99.90;;;;;;5087029;28;20663;-87
2021/01/21 00:08:14;;;;;;;7.27;2.00;;;11.10;99.90;;;;;;5056094;28;20849;-86
2021/01/21 00:10:40;;;;;;;2.67;0.50;;;11.10;99.90;;;;;;5072244;28;20216;-86
2021/01/21 00:13:07;;;;;;;0.80;0.40;;;10.50;99.90;;;;;;5071797;28;20201;-86
2021/01/21 00:15:33;;;;;;;1.03;0.27;;;9.80;99.90;;;;;;5054799;28;20210;-86
2021/01/21 00:18:00;;;;;;;0.33;0.30;;;9.60;99.90;;;;;;5065666;28;20202;-86
2021/01/21 00:20:28;;;;;;;0.57;0.20;;;9.40;99.90;;;;;;5085125;28;20230;-86
2021/01/21 00:22:54;;;;;;;1.10;0.30;;;9.20;99.90;;;;;;5092563;28;20259;-85
2021/01/21 00:25:21;;;;;;;1.27;0.20;;;9.00;99.90;;;;;;5066000;28;20264;-85
2021/01/21 00:27:47;;;;;;;1.47;0.47;;;8.80;99.90;;;;;;5072227;28;20204;-86
2021/01/21 00:30:15;;;;;;;0.70;0.30;;;8.70;99.90;;;;;;5067297;28;20247;-86
2021/01/21 00:32:41;;;;;;;1.93;0.30;;;8.60;99.90;;;;;;5060345;28;20198;-86
2021/01/21 00:35:09;;;;;;;0.77;0.30;;;8.60;99.90;;;;;;5051642;28;20211;-86
2021/01/21 00:37:36;;;;;;;1.67;0.30;;;8.50;99.90;;;;;;5054406;28;20656;-86
2021/01/21 00:40:03;;;;;;;2.30;0.30;;;8.50;99.90;;;;;;5092276;28;20222;-85
2021/01/21 00:42:32;;;;;;;1.50;0.20;;;8.40;99.90;;;;;;5092335;28;20676;-85
2021/01/21 00:44:58;;;;;;;3.50;0.30;;;8.40;99.90;;;;;;5092541;28;20213;-86
2021/01/21 00:47:25;;;;;;;2.23;0.50;;;8.40;99.90;;;;;;5092119;28;20218;-86
2021/01/21 00:49:51;;;;;;;1.93;0.40;;;8.40;99.90;;;;;;5077161;28;20211;-85
2021/01/21 00:52:18;;;;;;;1.17;0.40;;;8.30;99.90;;;;;;5053568;28;20667;-86
2021/01/21 00:55:01;;;;;;;0.60;0.20;;;8.30;99.90;;;;;;5051793;28;20197;-87
2021/01/21 00:57:27;;;;;;;1.63;0.30;;;8.30;99.90;;;;;;5051710;28;20200;-86
2021/01/21 00:59:54;;;;;;;0.90;0.20;;;8.20;99.90;;;;;;5052208;28;20261;-86
2021/01/21 01:02:24;;;;;;;2.80;0.50;;;8.10;99.90;;;;;;5081202;28;20199;-86
2021/01/21 01:04:50;;;;;;;2.40;0.40;;;8.00;99.90;;;;;;5073342;28;20225;-86
2021/01/21 01:07:17;;;;;;;5.97;0.53;;;7.90;99.90;;;;;;5086699;28;20199;-85
2021/01/21 01:09:45;;;;;;;3.27;0.53;;;7.80;99.90;;;;;;5075408;28;20232;-86
2021/01/21 01:12:12;;;;;;;5.30;0.83;;;7.70;99.90;;;;;;5075320;28;20207;-85
2021/01/21 01:14:39;;;;;;;4.97;0.50;;;7.50;99.90;;;;;;5073716;28;20191;-86
2021/01/21 01:17:05;;;;;;;3.27;0.43;;;7.40;99.90;;;;;;5058485;28;20195;-85
2021/01/21 01:19:32;;;;;;;5.30;0.63;;;7.30;99.90;;;;;;5066340;28;20233;-86
2021/01/21 01:22:00;;;;;;;5.00;0.57;;;7.20;99.90;;;;;;5095713;28;20244;-85
2021/01/21 01:24:26;;;;;;;2.80;0.50;;;7.20;99.90;;;;;;5095200;28;20190;-86
2021/01/21 01:26:53;;;;;;;3.43;0.90;;;7.20;99.90;;;;;;5095230;28;20595;-86
2021/01/21 01:29:20;;;;;;;1.40;0.50;;;7.20;99.90;;;;;;5086898;28;20204;-86
2021/01/21 01:31:47;;;;;;;3.03;0.60;;;7.10;99.90;;;;;;5074676;28;20263;-86
2021/01/21 01:34:14;;;;;;;3.03;0.80;;;7.00;99.90;;;;;;5075214;28;20201;-86
2021/01/21 01:36:41;;;;;;;3.00;0.50;;;7.00;99.90;;;;;;5075260;28;20209;-86
2021/01/21 01:39:07;;;;;;;4.17;0.60;;;7.00;99.90;;;;;;5075001;28;20230;-86
2021/01/21 01:41:34;;;;;;;8.67;1.00;;;7.00;99.90;;;;;;5074655;28;20685;-86
2021/01/21 01:44:00;;;;;;;4.57;0.60;;;7.00;99.90;;;;;;5064907;28;20650;-85
2021/01/21 01:46:28;;;;;;;3.60;0.80;;;6.90;99.90;;;;;;5079975;28;20229;-86
2021/01/21 01:48:57;;;;;;;4.30;1.00;;;6.80;99.90;;;;;;5078221;28;20217;-87
2021/01/21 01:51:24;;;;;;;4.47;1.10;;;6.70;99.90;;;;;;5071373;28;20246;-86
2021/01/21 01:53:51;;;;;;;3.73;1.00;;;6.60;99.90;;;;;;5074731;28;20709;-86
2021/01/21 01:56:18;;;;;;;5.60;0.80;;;6.50;99.90;;;;;;5080402;28;20220;-86
2021/01/21 01:58:44;;;;;;;3.70;0.77;;;6.50;99.90;;;;;;5074337;28;20287;-86
2021/01/21 02:01:11;;;;;;;2.53;0.80;;;6.50;99.90;;;;;;5067662;28;20206;-86
2021/01/21 02:03:39;;;;;;;5.37;1.07;;;6.40;99.90;;;;;;5072838;28;20199;-85
2021/01/21 02:06:07;;;;;;;4.13;1.10;;;6.40;99.90;;;;;;5082161;28;20194;-86
2021/01/21 02:08:33;;;;;;;4.47;0.90;;;6.30;99.90;;;;;;5073839;28;20760;-86
2021/01/21 02:11:08;;;;;;;2.83;0.60;;;6.30;99.90;;;;;;5074334;28;20229;-86
2021/01/21 02:13:51;;;;;;;3.13;0.83;;;6.30;99.90;;;;;;5074023;28;20194;-85
2021/01/21 02:16:29;;;;;;;3.60;0.83;;;6.30;99.90;;;;;;5073041;28;20206;-85
2021/01/21 02:19:27;;;;;;;5.60;0.90;;;6.30;99.90;;;;;;5085255;28;20700;-85
2021/01/21 02:22:31;;;;;;;9.03;0.83;;;6.20;99.90;;;;;;5065530;28;20199;-86
2021/01/21 02:25:13;;;;;;;4.67;0.57;;;6.20;99.90;;;;;;5054054;28;20674;-86
2021/01/21 02:28:05;;;;;;;4.10;0.50;;;6.20;99.90;;;;;;5060247;28;20205;-86
2021/01/21 02:30:46;;;;;;;4.73;0.83;;;6.10;99.90;;;;;;5053450;28;20274;-86
2021/01/21 02:33:27;;;;;;;2.90;0.60;;;6.10;99.90;;;;;;5087082;28;20288;-86
2021/01/21 02:36:01;;;;;;;3.37;0.73;;;6.00;99.90;;;;;;5092867;28;20203;-86
2021/01/21 02:38:35;;;;;;;2.73;0.53;;;6.00;99.90;;;;;;5094283;28;20251;-86
2021/01/21 02:41:02;;;;;;;7.10;0.80;;;6.00;99.90;;;;;;5093755;28;20671;-86
2021/01/21 02:43:29;;;;;;;3.50;0.60;;;6.00;99.90;;;;;;5076579;28;20263;-85
2021/01/21 02:45:55;;;;;;;5.77;0.90;;;6.10;99.90;;;;;;5073329;28;20247;-85
2021/01/21 02:48:22;;;;;;;5.70;0.73;;;6.00;99.90;;;;;;5093332;28;20204;-86
2021/01/21 02:50:54;;;;;;;3.93;0.60;;;6.10;99.90;;;;;;5074818;28;20229;-86
2021/01/21 02:53:21;;;;;;;5.77;0.83;;;6.00;99.90;;;;;;5105282;28;20199;-86
2021/01/21 02:55:54;;;;;;;4.77;0.70;;;6.00;99.90;;;;;;5073196;28;20188;-86
2021/01/21 02:58:29;;;;;;;3.83;0.93;;;5.90;99.90;;;;;;5072929;28;20223;-86
2021/01/21 03:01:01;;;;;;;4.23;0.80;;;5.90;99.90;;;;;;5078011;28;20207;-86
2021/01/21 03:03:28;;;;;;;6.80;0.90;;;5.90;99.90;;;;;;5093546;28;20256;-86
2021/01/21 03:05:57;;;;;;;5.13;1.00;;;5.90;99.90;;;;;;5076699;28;20198;-86
2021/01/21 03:08:26;;;;;;;5.37;1.00;;;5.90;99.90;;;;;;5073020;28;20213;-85
2021/01/21 03:11:07;;;;;;;2.90;0.93;;;5.90;99.90;;;;;;5072679;28;20273;-85
2021/01/21 03:13:34;;;;;;;6.03;1.20;;;5.80;99.90;;;;;;5072801;28;20207;-85
2021/01/21 03:16:00;;;;;;;4.63;1.10;;;5.70;99.90;;;;;;5072382;28;20269;-86
2021/01/21 03:18:27;;;;;;;5.57;0.90;;;5.70;99.90;;;;;;5072788;28;20246;-86
2021/01/21 03:20:53;;;;;;;6.10;1.17;;;5.70;99.90;;;;;;5014420;28;20217;-85
2021/01/21 03:23:20;;;;;;;4.83;1.43;;;5.70;99.90;;;;;;5013292;28;20217;-85
2021/01/21 03:25:47;;;;;;;7.53;1.70;;;5.70;99.90;;;;;;5012964;28;20228;-85
2021/01/21 03:28:14;;;;;;;5.90;1.50;;;5.70;99.90;;;;;;5038977;28;20280;-85
2021/01/21 03:30:40;;;;;;;7.23;1.30;;;5.80;99.90;;;;;;5032795;28;20220;-86
2021/01/21 03:33:07;;;;;;;7.93;1.40;;;5.70;99.90;;;;;;5012999;28;20241;-85
2021/01/21 03:35:33;;;;;;;7.20;1.17;;;5.70;99.90;;;;;;5013387;28;20206;-85
2021/01/21 03:38:00;;;;;;;3.43;0.90;;;5.70;99.90;;;;;;5012983;28;20227;-85
2021/01/21 03:40:26;;;;;;;9.63;1.13;;;5.70;99.90;;;;;;5012986;28;20197;-85
2021/01/21 03:42:54;;;;;;;3.93;1.20;;;5.80;99.90;;;;;;5012676;28;20656;-85
2021/01/21 03:45:20;;;;;;;5.83;1.20;;;5.70;99.90;;;;;;5022948;28;20204;-85
2021/01/21 03:47:47;;;;;;;7.63;1.10;;;5.70;99.90;;;;;;5052673;28;20239;-85
2021/01/21 03:50:17;;;;;;;4.37;1.00;;;5.70;99.90;;;;;;5029282;28;20261;-85
2021/01/21 03:52:43;;;;;;;6.97;1.23;;;5.70;99.90;;;;;;5033282;28;20274;-86
2021/01/21 03:55:11;;;;;;;9.00;1.30;;;5.60;99.90;;;;;;5032294;28;20213;-85
2021/01/21 03:57:37;;;;;;;5.10;0.97;;;5.70;99.90;;;;;;5045646;28;20652;-86
2021/01/21 04:00:06;;;;;;;11.13;1.33;;;5.70;99.90;;;;;;5039729;28;20733;-85
2021/01/21 04:02:33;;;;;;;9.43;1.07;;;5.60;99.90;;;;;;5044907;28;20199;-86
2021/01/21 04:04:59;;;;;;;6.33;1.20;;;5.60;99.90;;;;;;5045893;28;20739;-85
2021/01/21 04:07:26;;;;;;;5.40;1.10;;;5.70;99.90;;;;;;5029917;28;20211;-85
2021/01/21 04:09:52;;;;;;;9.67;1.10;;;5.70;99.90;;;;;;5016790;28;20581;-85
2021/01/21 04:12:19;;;;;;;7.53;1.30;;;5.80;99.90;;;;;;5012088;28;20202;-86
2021/01/21 04:14:45;;;;;;;11.50;1.33;;;5.70;99.90;;;;;;5016311;28;20212;-86
2021/01/21 04:17:12;;;;;;;9.00;1.33;;;5.70;99.90;;;;;;5045413;28;20205;-85
2021/01/21 04:19:39;;;;;;;7.47;1.00;;;5.70;99.90;;;;;;5064750;28;20443;-85
2021/01/21 04:22:05;;;;;;;6.77;1.60;;;5.80;99.90;;;;;;5072498;28;20668;-85
2021/01/21 04:24:32;;;;;;;9.47;1.13;;;5.70;99.90;;;;;;5072085;28;20250;-85
2021/01/21 04:26:58;;;;;;;10.13;1.33;;;5.60;99.90;;;;;;5055026;28;20197;-85
2021/01/21 04:29:25;;;;;;;13.27;1.77;;;5.60;99.90;;;;;;5051711;28;20199;-85
2021/01/21 04:31:51;;;;;;;11.03;1.90;;;5.60;99.90;;;;;;5073483;28;20687;-85
2021/01/21 04:34:19;;;;;;;10.10;1.50;;;5.60;99.90;;;;;;5092251;28;20215;-85
2021/01/21 04:36:45;;;;;;;13.67;2.37;;;5.50;99.90;;;;;;5092069;28;20617;-85
2021/01/21 04:39:12;;;;;;;13.20;2.77;;;5.50;99.90;;;;;;5092681;28;20658;-85
2021/01/21 04:41:38;;;;;;;13.13;3.67;;;5.60;99.90;;;;;;5096409;28;20195;-85
2021/01/21 04:44:05;;;;;;;13.00;2.90;;;5.60;99.90;;;;;;5084175;28;20217;-85
2021/01/21 04:46:32;;;;;;;14.23;3.90;;;5.60;99.90;;;;;;5102875;28;20195;-86
2021/01/21 04:49:01;;;;;;;14.97;3.63;;;5.50;99.90;;;;;;5093363;28;20643;-85
2021/01/21 04:51:30;;;;;;;12.20;3.17;;;5.50;99.90;;;;;;5095580;28;20268;-85
2021/01/21 04:53:58;;;;;;;15.77;3.77;;;5.60;99.90;;;;;;5079351;28;20691;-85
2021/01/21 04:56:31;;;;;;;13.43;2.63;;;5.50;99.90;;;;;;5070328;28;20228;-85
2021/01/21 04:59:03;;;;;;;13.13;3.33;;;5.50;99.90;;;;;;5075545;28;20611;-85
2021/01/21 05:01:30;;;;;;;14.77;2.47;;;5.50;99.90;;;;;;5075346;28;20269;-85
2021/01/21 05:03:57;;;;;;;11.90;3.30;;;5.50;99.90;;;;;;5081346;28;20296;-85
2021/01/21 05:06:24;;;;;;;10.10;2.03;;;5.50;99.90;;;;;;5071500;28;20205;-85
2021/01/21 05:08:51;;;;;;;15.23;2.63;;;5.40;99.90;;;;;;5055301;28;20233;-85
2021/01/21 05:11:18;;;;;;;9.57;2.40;;;5.50;99.90;;;;;;5055337;28;20716;-85
2021/01/21 05:13:45;;;;;;;15.83;2.63;;;5.40;99.90;;;;;;5056520;28;20293;-85
2021/01/21 05:16:11;;;;;;;13.93;3.13;;;5.40;99.90;;;;;;5055287;28;20573;-85
2021/01/21 05:18:38;;;;;;;12.40;3.20;;;5.40;99.90;;;;;;5054901;28;20211;-85
2021/01/21 05:21:05;;;;;;;11.63;3.00;;;5.40;99.90;;;;;;5081618;28;20783;-85
2021/01/21 05:23:31;;;;;;;12.00;3.33;;;5.40;99.90;;;;;;5094835;28;20188;-85
2021/01/21 05:25:59;;;;;;;15.50;3.00;;;5.30;99.90;;;;;;5093836;28;20204;-85
2021/01/21 05:28:27;;;;;;;14.17;3.23;;;5.40;99.90;;;;;;5059797;28;20199;-84
2021/01/21 05:30:59;;;;;;;11.50;2.30;;;5.40;99.90;;;;;;5084445;28;20220;-91
2021/01/21 05:33:27;;;;;;;11.30;2.73;;;5.50;99.90;;;;;;5055376;28;20609;-85
2021/01/21 05:35:54;;;;;;;11.43;1.90;;;5.50;99.90;;;;;;5071160;28;20198;-81
2021/01/21 05:38:21;;;;;;;11.40;2.07;;;5.40;99.90;;;;;;5074301;28;20679;-82
2021/01/21 05:40:48;;;;;;;5.83;1.20;;;5.40;99.90;;;;;;5074822;28;20236;-82
2021/01/21 05:43:15;;;;;;;7.63;1.90;;;5.50;99.90;;;;;;5074500;28;20226;-82
2021/01/21 05:45:45;;;;;;;13.03;1.60;;;5.40;99.90;;;;;;5077783;28;20245;-82
2021/01/21 05:48:12;;;;;;;10.07;1.80;;;5.40;99.90;;;;;;5057240;28;20291;-82
2021/01/21 05:50:38;;;;;;;10.40;1.53;;;5.40;99.90;;;;;;5054176;28;20271;-82
2021/01/21 05:53:07;;;;;;;11.63;1.73;;;5.40;99.90;;;;;;5054199;28;20272;-82
2021/01/21 05:55:37;;;;;;;11.03;1.50;;;5.40;99.90;;;;;;5054151;28;20207;-81
2021/01/21 05:58:04;;;;;;;14.03;1.87;;;5.40;99.90;;;;;;5054562;28;20201;-83
2021/01/21 06:00:33;;;;;;;11.20;1.20;;;5.40;99.90;;;;;;5060225;28;20653;-83
2021/01/21 06:03:00;;;;;;;8.43;1.80;;;5.30;99.90;;;;;;5074179;28;20227;-83
2021/01/21 06:05:28;;;;;;;8.77;1.73;;;5.30;99.90;;;;;;5060804;28;20721;-83
2021/01/21 06:07:54;;;;;;;9.63;1.53;;;5.40;99.90;;;;;;5073997;28;20235;-81
2021/01/21 06:10:22;;;;;;;7.10;1.53;;;5.40;99.90;;;;;;5080431;28;20662;-81
2021/01/21 06:12:51;;;;;;;9.20;1.63;;;5.40;99.90;;;;;;5073531;28;20196;-81
2021/01/21 06:15:18;;;;;;;9.00;1.63;;;5.40;99.90;;;;;;5073840;28;20666;-80
2021/01/21 06:17:48;;;;;;;9.47;1.37;;;5.40;99.90;;;;;;5071806;28;20602;-82
2021/01/21 06:20:16;;;;;;;9.30;1.67;;;5.40;99.90;;;;;;5073027;28;20285;-83
2021/01/21 06:22:44;;;;;;;8.93;1.60;;;5.50;99.90;;;;;;5076018;28;20206;-82
2021/01/21 06:25:13;;;;;;;7.37;1.20;;;5.50;99.90;;;;;;5072555;28;20231;-82
2021/01/21 06:27:42;;;;;;;10.63;1.50;;;5.50;99.90;;;;;;5076371;28;20199;-82
2021/01/21 06:30:13;;;;;;;6.67;1.30;;;5.60;99.90;;;;;;5072276;28;20239;-85
2021/01/21 06:32:47;;;;;;;6.63;1.30;;;5.60;99.90;;;;;;5089886;28;20235;-84
2021/01/21 06:35:20;;;;;;;6.53;1.73;;;5.60;99.90;;;;;;5079268;28;20204;-85
2021/01/21 06:37:51;;;;;;;5.97;1.50;;;5.60;99.90;;;;;;5053427;28;20238;-84
2021/01/21 06:40:20;;;;;;;9.33;1.77;;;5.60;99.90;;;;;;5090332;28;20296;-85
2021/01/21 06:42:56;;;;;;;6.93;1.67;;;5.60;99.90;;;;;;5073704;28;20253;-85
2021/01/21 06:45:23;;;;;;;7.20;1.67;;;5.60;99.90;;;;;;5072847;28;20672;-84
2021/01/21 06:47:50;;;;;;;11.23;1.90;;;5.60;99.90;;;;;;5073687;28;20207;-84
2021/01/21 06:50:18;;;;;;;6.50;1.93;;;5.60;99.90;;;;;;5072601;28;20695;-84
2021/01/21 06:52:46;;;;;;;9.47;1.87;;;5.60;99.90;;;;;;5073521;28;20277;-84
2021/01/21 06:55:13;;;;;;;10.73;1.60;;;5.60;99.90;;;;;;5073024;28;20287;-84
2021/01/21 06:57:44;;;;;;;9.00;1.70;;;5.70;99.90;;;;;;5073249;28;20703;-84
2021/01/21 07:00:37;;;;;;;8.93;1.73;;;5.60;99.90;;;;;;5073304;28;20624;-84
2021/01/21 07:03:04;;;;;;;12.60;2.00;;;5.70;99.90;;;;;;5066393;28;20688;-84
2021/01/21 07:05:31;;;;;;;9.10;1.90;;;5.70;99.90;;;;;;5052961;28;20226;-84
2021/01/21 07:08:06;;;;;;;13.47;2.00;;;5.70;99.90;;;;;;5053836;28;20212;-85
2021/01/21 07:10:39;;;;;;;11.33;2.10;;;5.80;99.90;;;;;;5072532;28;20223;-83
2021/01/21 07:13:07;;;;;;;9.67;2.07;;;5.90;99.90;;;;;;5063331;28;20201;-84
2021/01/21 07:15:42;;;;;;;8.77;2.13;;;5.90;99.90;;;;;;5058713;28;20293;-84
2021/01/21 07:18:14;;;;;;;7.33;1.70;;;6.00;99.90;;;;;;5070951;28;20675;-84
2021/01/21 07:21:13;;;;;;;5.63;1.53;;;6.10;99.90;;;;;;5072106;28;20664;-84
2021/01/21 07:23:48;;;;;;;11.33;1.77;;;6.20;99.90;;;;;;5059005;28;20948;-84
2021/01/21 07:26:19;;;;;;;9.20;1.80;;;6.30;99.90;;;;;;5066642;28;20660;-84
2021/01/21 07:28:56;;;;;;;12.17;1.70;;;6.30;99.90;;;;;;5053047;28;20207;-84
2021/01/21 07:31:22;;;;;;;11.93;1.90;;;6.20;99.90;;;;;;5084741;28;20311;-84
2021/01/21 07:33:49;;;;;;;9.07;1.70;;;6.20;99.90;;;;;;5068254;28;20197;-84
2021/01/21 07:36:30;;;;;;;6.83;1.57;;;6.20;99.90;;;;;;5083667;28;20582;-84
2021/01/21 07:38:56;;;;;;;7.70;2.47;;;6.10;99.90;;;;;;5074994;28;20626;-84
2021/01/21 07:41:51;;;;;;;9.87;3.23;;;6.20;99.90;;;;;;5061460;28;20197;-84
2021/01/21 07:44:18;;;;;;;11.30;2.20;;;6.20;99.90;;;;;;5051353;28;20195;-84
2021/01/21 07:46:44;;;;;;;7.30;1.80;;;6.20;99.90;;;;;;5052324;28;20232;-84
2021/01/21 07:49:25;;;;;;;12.77;2.43;;;6.20;99.90;;;;;;5061144;28;20654;-84
2021/01/21 07:52:04;;;;;;;12.83;2.37;;;6.30;99.90;;;;;;5054466;28;20312;-84
2021/01/21 07:54:31;;;;;;;10.30;2.77;;;6.20;99.90;;;;;;5061926;28;20235;-84
2021/01/21 07:56:58;;;;;;;13.13;2.17;;;6.20;99.90;;;;;;5091804;28;20228;-84
2021/01/21 07:59:24;;;;;;;11.10;2.07;;;6.30;99.90;;;;;;5054644;28;20198;-84
2021/01/21 08:01:58;;;;;;;14.23;2.60;;;6.30;99.90;;;;;;5066047;28;20198;-84
2021/01/21 08:04:25;;;;;;;9.53;2.17;;;6.30;99.90;;;;;;5065585;28;20279;-85
2021/01/21 08:06:55;;;;;;;10.33;2.67;;;6.20;99.90;;;;;;5070195;28;20233;-84
2021/01/21 08:09:24;;;;;;;11.63;2.60;;;6.20;99.90;;;;;;5065597;28;20203;-84
2021/01/21 08:11:51;;;;;;;12.10;2.47;;;6.20;99.90;;;;;;5078265;28;20219;-84
2021/01/21 08:14:18;;;;;;;13.10;2.60;;;6.30;99.90;;;;;;5072968;28;20197;-84
2021/01/21 08:16:46;;;;;;;12.57;2.70;;;6.40;99.90;;;;;;5076369;28;20190;-84
2021/01/21 08:19:13;;;;;;;11.63;2.60;;;6.40;99.90;;;;;;5072769;28;20266;-85
2021/01/21 08:21:40;;;;;;;11.73;2.47;;;6.40;99.90;;;;;;5056476;28;20200;-84
2021/01/21 08:24:08;;;;;;;13.97;2.60;;;6.40;99.90;;;;;;5074132;28;20213;-84
2021/01/21 08:26:37;;;;;;;8.40;1.73;;;6.40;99.90;;;;;;5070824;28;20197;-85
2021/01/21 08:29:09;;;;;;;11.17;2.13;;;6.40;99.90;;;;;;5057649;28;20246;-84
2021/01/21 08:31:39;;;;;;;12.83;2.30;;;6.50;99.90;;;;;;5061251;28;20660;-83
2021/01/21 08:34:08;;;;;;;13.40;2.00;;;6.50;99.90;;;;;;5058668;28;20637;-84
2021/01/21 08:36:35;;;;;;;12.87;2.47;;;6.60;99.90;;;;;;5062361;28;20234;-83
2021/01/21 08:39:03;;;;;;;14.10;2.43;;;6.50;99.90;;;;;;5068524;28;20619;-84
2021/01/21 08:41:30;;;;;;;9.33;2.13;;;6.50;99.90;;;;;;5072021;28;20649;-84
2021/01/21 08:44:00;;;;;;;12.70;2.50;;;6.50;99.90;;;;;;5075657;28;20224;-83
2021/01/21 08:46:27;;;;;;;11.37;2.50;;;6.50;99.90;;;;;;5073428;28;20217;-85
2021/01/21 08:48:54;;;;;;;12.07;2.67;;;6.60;99.90;;;;;;5060171;28;20706;-85
2021/01/21 08:51:26;;;;;;;12.60;2.20;;;6.60;99.90;;;;;;5061563;28;20725;-84
2021/01/21 08:53:52;;;;;;;11.07;2.13;;;6.60;99.90;;;;;;5069433;28;20237;-84
2021/01/21 08:56:19;;;;;;;12.40;2.30;;;6.70;99.90;;;;;;5061047;28;20231;-84
2021/01/21 08:58:45;;;;;;;10.00;2.00;;;6.70;99.90;;;;;;5059361;28;20650;-84
2021/01/21 09:01:12;;;;;;;10.47;2.27;;;6.80;99.90;;;;;;5076348;28;20252;-84
2021/01/21 09:03:45;;;;;;;13.30;2.67;;;6.80;99.90;;;;;;5084204;28;20208;-84
2021/01/21 09:06:12;;;;;;;16.67;2.50;;;6.90;99.90;;;;;;5076283;28;20237;-83
2021/01/21 09:08:53;;;;;;;12.13;2.47;;;6.90;99.90;;;;;;5075492;28;20283;-83
2021/01/21 09:11:30;;;;;;;10.63;2.10;;;7.00;99.90;;;;;;5068076;28;20725;-83
2021/01/21 09:13:56;;;;;;;10.70;1.87;;;7.00;99.90;;;;;;5073375;28;20255;-83
2021/01/21 09:16:45;;;;;;;11.77;2.40;;;7.10;99.90;;;;;;5070275;28;20682;-83
2021/01/21 09:19:14;;;;;;;10.57;2.00;;;7.20;99.90;;;;;;5069580;28;20741;-83
2021/01/21 09:21:57;;;;;;;14.83;2.30;;;7.30;99.90;;;;;;5074054;28;20689;-84
2021/01/21 09:24:23;;;;;;;9.23;2.23;;;7.40;99.90;;;;;;5085719;28;20201;-84
2021/01/21 09:27:08;;;;;;;15.77;2.60;;;7.40;99.90;;;;;;5074470;28;20199;-83
2021/01/21 09:29:48;;;;;;;12.37;2.50;;;7.50;99.90;;;;;;5078143;28;20611;-83
2021/01/21 09:32:16;;;;;;;14.27;2.67;;;7.60;99.90;;;;;;5092477;28;20222;-83
2021/01/21 09:34:55;;;;;;;12.90;2.60;;;7.70;99.90;;;;;;5093107;28;20221;-83
2021/01/21 09:37:22;;;;;;;11.33;2.57;;;7.70;99.90;;;;;;5054738;28;20226;-83
2021/01/21 09:39:49;;;;;;;11.67;2.13;;;7.70;99.90;;;;;;5054664;28;20245;-83
2021/01/21 09:42:16;;;;;;;17.73;2.40;;;7.70;99.90;;;;;;5055101;28;21085;-83
2021/01/21 09:44:43;;;;;;;13.13;2.70;;;7.70;99.90;;;;;;5054404;28;20204;-85
2021/01/21 09:47:10;;;;;;;14.57;2.20;;;7.70;99.90;;;;;;5065224;28;20674;-83
2021/01/21 09:49:37;;;;;;;18.37;2.60;;;7.80;99.90;;;;;;5074410;28;20203;-83
2021/01/21 09:52:06;;;;;;;10.87;1.90;;;7.90;99.90;;;;;;5074305;28;20211;-83
2021/01/21 09:54:33;;;;;;;13.97;2.27;;;7.90;99.90;;;;;;5074647;28;20199;-84
2021/01/21 09:56:59;;;;;;;9.03;2.03;;;7.90;99.90;;;;;;5055069;28;20644;-84
2021/01/21 09:59:26;;;;;;;16.67;2.97;;;7.90;99.90;;;;;;5086232;28;20200;-84
2021/01/21 10:01:52;;;;;;;12.23;2.80;;;8.00;99.90;;;;;;5054672;28;20293;-84
2021/01/21 10:04:19;;;;;;;16.20;2.17;;;8.00;99.90;;;;;;5054658;28;20196;-84
2021/01/21 10:06:46;;;;;;;13.33;2.00;;;8.00;99.90;;;;;;5057858;28;20249;-84
2021/01/21 10:09:13;;;;;;;9.00;2.00;;;8.00;99.90;;;;;;5074380;28;20226;-84
2021/01/21 10:11:39;;;;;;;8.53;1.80;;;8.10;99.90;;;;;;5073477;28;20250;-83
2021/01/21 10:14:07;;;;;;;12.40;2.27;;;8.10;99.90;;;;;;5073116;28;20234;-83
2021/01/21 10:16:33;;;;;;;18.87;2.20;;;8.20;99.90;;;;;;5073979;28;20234;-83
2021/01/21 10:19:00;;;;;;;13.33;2.13;;;8.20;99.90;;;;;;5072386;28;20587;-84
2021/01/21 10:21:27;;;;;;;8.90;1.60;;;8.20;99.90;;;;;;5071039;28;20214;-84
2021/01/21 10:23:54;;;;;;;13.83;2.20;;;8.30;99.90;;;;;;5073196;28;20259;-83
2021/01/21 10:26:22;;;;;;;12.27;2.17;;;8.30;99.90;;;;;;5068218;28;20233;-84
2021/01/21 10:28:49;;;;;;;11.00;1.97;;;8.30;99.90;;;;;;5073650;28;20340;-84
2021/01/21 10:31:24;;;;;;;11.57;1.97;;;8.30;99.90;;;;;;5073902;28;20253;-84
2021/01/21 10:33:51;;;;;;;13.17;2.43;;;8.30;99.90;;;;;;5072748;28;20258;-84
2021/01/21 10:36:21;;;;;;;18.07;2.10;;;8.40;99.90;;;;;;5073667;28;20671;-84
2021/01/21 10:38:48;;;;;;;12.00;2.37;;;8.40;99.90;;;;;;5073128;28;20241;-83
2021/01/21 10:41:15;;;;;;;13.23;2.50;;;8.30;99.90;;;;;;5073403;28;20195;-84
2021/01/21 10:43:42;;;;;;;10.97;2.00;;;8.30;99.90;;;;;;5073323;28;20199;-84
2021/01/21 10:46:08;;;;;;;9.40;2.20;;;8.30;99.90;;;;;;5073475;28;20263;-84
2021/01/21 10:48:35;;;;;;;18.57;2.50;;;8.30;99.90;;;;;;5073233;28;20234;-84
2021/01/21 10:51:01;;;;;;;13.50;2.90;;;8.30;99.90;;;;;;5073493;28;20320;-83
2021/01/21 10:53:28;;;;;;;11.03;2.40;;;8.30;99.90;;;;;;5073425;28;20668;-84
2021/01/21 10:55:54;;;;;;;14.13;2.47;;;8.30;99.90;;;;;;5073079;28;20225;-84
2021/01/21 10:58:22;;;;;;;12.30;2.10;;;8.30;99.90;;;;;;5072791;28;20252;-84
2021/01/21 11:00:48;;;;;;;9.23;2.10;;;8.30;99.90;;;;;;5073070;28;20195;-84
2021/01/21 11:03:15;;;;;;;9.30;2.40;;;8.40;99.90;;;;;;5072113;28;20250;-83
2021/01/21 11:05:42;;;;;;;10.80;2.30;;;8.30;99.90;;;;;;5073382;28;20227;-84
2021/01/21 11:08:09;;;;;;;13.03;2.87;;;8.30;99.90;;;;;;5055723;28;20627;-83
2021/01/21 11:10:35;;;;;;;13.00;2.73;;;8.30;99.90;;;;;;5053411;28;20224;-84
2021/01/21 11:13:02;;;;;;;15.20;2.80;;;8.40;99.90;;;;;;5090432;28;20199;-85
2021/01/21 11:15:30;;;;;;;19.33;3.10;;;8.40;99.90;;;;;;5072887;28;20226;-84
2021/01/21 11:17:57;;;;;;;13.20;2.30;;;8.40;99.90;;;;;;5072452;28;20203;-83
2021/01/21 11:20:23;;;;;;;9.73;2.60;;;8.40;99.90;;;;;;5071007;28;20744;-83
2021/01/21 11:22:50;;;;;;;12.73;2.30;;;8.40;99.90;;;;;;5055841;28;20206;-86
2021/01/21 11:25:16;;;;;;;14.77;2.63;;;8.40;99.90;;;;;;5056138;28;20203;-81
2021/01/21 11:27:44;;;;;;;16.30;2.27;;;8.40;99.90;;;;;;5052886;28;20207;-80
2021/01/21 11:30:13;;;;;;;11.43;2.10;;;8.40;99.90;;;;;;5065559;28;20241;-80
2021/01/21 11:32:40;;;;;;;15.07;2.17;;;8.40;99.90;;;;;;5069761;28;20196;-79
2021/01/21 11:35:08;;;;;;;10.63;2.50;;;8.40;99.90;;;;;;5071770;28;20282;-80
2021/01/21 11:37:34;;;;;;;10.97;2.00;;;8.40;99.90;;;;;;5071525;28;20235;-81
2021/01/21 11:40:01;;;;;;;10.70;2.10;;;8.40;99.90;;;;;;5070907;28;20713;-79
2021/01/21 11:42:28;;;;;;;11.60;2.10;;;8.40;99.90;;;;;;5071109;28;20230;-80
2021/01/21 11:44:55;;;;;;;11.43;2.27;;;8.40;99.90;;;;;;5071653;28;20699;-80
2021/01/21 11:47:21;;;;;;;14.63;2.33;;;8.40;99.90;;;;;;5071721;28;20226;-80
2021/01/21 11:49:49;;;;;;;16.13;2.30;;;8.40;99.90;;;;;;5071837;28;20242;-81
2021/01/21 11:52:16;;;;;;;10.57;2.10;;;8.50;99.90;;;;;;5069958;28;20223;-79
2021/01/21 11:54:42;;;;;;;13.63;2.47;;;8.50;99.90;;;;;;5071212;28;20219;-79
2021/01/21 11:57:08;;;;;;;8.70;2.20;;;8.50;99.90;;;;;;5065520;28;20679;-79
2021/01/21 11:59:35;;;;;;;9.50;2.30;;;8.50;99.90;;;;;;5053469;28;20211;-79
2021/01/21 12:02:01;;;;;;;13.23;2.33;;;8.60;99.90;;;;;;5069608;28;20627;-82
2021/01/21 12:04:28;;;;;;;12.17;2.50;;;8.60;99.90;;;;;;5062910;28;20228;-82
2021/01/21 12:06:55;;;;;;;9.77;2.20;;;8.60;99.90;;;;;;5077513;28;20203;-83
2021/01/21 12:09:22;;;;;;;9.50;2.23;;;8.60;99.90;;;;;;5071938;28;20273;-83
2021/01/21 12:11:48;;;;;;;10.17;2.20;;;8.60;99.90;;;;;;5071858;28;20711;-83
2021/01/21 12:14:14;;;;;;;13.63;2.50;;;8.50;99.90;;;;;;5063918;28;20235;-83
2021/01/21 12:16:41;;;;;;;9.70;2.17;;;8.60;99.90;;;;;;5071255;28;20553;-83
2021/01/21 12:19:08;;;;;;;12.83;2.37;;;8.60;99.90;;;;;;5064500;28;20262;-84
2021/01/21 12:21:34;;;;;;;14.20;2.40;;;8.60;99.90;;;;;;5071834;28;20225;-83
2021/01/21 12:24:01;;;;;;;11.43;2.50;;;8.60;99.90;;;;;;5072050;28;20191;-84
2021/01/21 12:26:28;;;;;;;9.63;2.10;;;8.50;99.90;;;;;;5071973;28;20623;-84
2021/01/21 12:28:55;;;;;;;10.83;2.17;;;8.50;99.90;;;;;;5104858;28;20191;-84
2021/01/21 12:31:21;;;;;;;12.53;2.53;;;8.50;99.90;;;;;;5064612;28;20236;-85
2021/01/21 12:33:48;;;;;;;6.27;2.43;;;8.50;99.90;;;;;;5065708;28;20242;-84
2021/01/21 12:36:14;;;;;;;8.07;2.27;;;8.50;99.90;;;;;;5058798;28;20357;-84
2021/01/21 12:38:41;;;;;;;6.40;1.53;;;8.50;99.90;;;;;;5052509;28;20662;-84
2021/01/21 12:41:08;;;;;;;10.43;2.40;;;8.50;99.90;;;;;;5059616;28;20191;-83
2021/01/21 12:43:35;;;;;;;5.70;1.70;;;8.50;99.90;;;;;;5051700;28;20246;-83
2021/01/21 12:46:01;;;;;;;11.23;1.70;;;8.60;99.90;;;;;;5062640;28;20257;-84
2021/01/21 12:48:28;;;;;;;7.37;2.20;;;8.60;99.90;;;;;;5071864;28;20217;-84
2021/01/21 12:50:55;;;;;;;6.90;1.60;;;8.60;99.90;;;;;;5071938;28;20778;-84
2021/01/21 12:53:21;;;;;;;6.90;1.77;;;8.60;99.90;;;;;;5070682;28;20214;-83
2021/01/21 12:55:47;;;;;;;9.20;1.90;;;8.60;99.90;;;;;;5071606;28;20254;-84
2021/01/21 12:58:15;;;;;;;4.77;1.63;;;8.60;99.90;;;;;;5069174;28;20254;-84
2021/01/21 13:00:41;;;;;;;7.47;1.67;;;8.60;99.90;;;;;;5073269;28;20256;-84